createdAt,value
2023-01-17T00:02:07.201Z,9.45
2023-01-17T00:04:53.107Z,10.73
2023-01-17T00:07:40.524Z,9.77
2023-01-17T00:10:16.867Z,7.87
2023-01-17T00:13:03.552Z,9.68
2023-01-17T00:15:31.901Z,10.10
2023-01-17T00:17:59.573Z,10.05
2023-01-17T00:20:48.709Z,10.93
2023-01-17T00:23:40.414Z,10.33
2023-01-17T00:26:12.969Z,10.57
2023-01-17T00:28:41.572Z,10.60
2023-01-17T00:31:11.385Z,10.52
2023-01-17T00:33:39.113Z,8.95
2023-01-17T00:36:07.480Z,10.30
2023-01-17T00:38:37.459Z,9.65
2023-01-17T00:41:13.479Z,7.75
2023-01-17T00:43:59.382Z,11.73
2023-01-17T00:46:45.188Z,11.60
2023-01-17T00:49:30.754Z,10.23
2023-01-17T00:52:16.443Z,9.55
2023-01-17T00:55:02.204Z,9.00
2023-01-17T00:57:49.130Z,10.00
2023-01-17T01:00:37.593Z,10.82
2023-01-17T01:03:30.154Z,9.97
2023-01-17T01:06:16.095Z,9.30
2023-01-17T01:09:01.606Z,11.27
2023-01-17T01:11:47.185Z,12.15
2023-01-17T01:14:32.890Z,9.55
2023-01-17T01:17:18.681Z,11.33
2023-01-17T01:20:04.386Z,11.45
2023-01-17T01:22:49.968Z,10.98
2023-01-17T01:25:35.619Z,10.68
2023-01-17T01:28:26.586Z,11.20
2023-01-17T01:31:12.223Z,11.13
2023-01-17T01:33:39.211Z,10.20
2023-01-17T01:36:09.136Z,11.48
2023-01-17T01:38:36.443Z,11.02
2023-01-17T01:41:04.133Z,10.00
2023-01-17T01:43:54.520Z,11.13
2023-01-17T01:46:33.251Z,10.23
2023-01-17T01:49:08.569Z,10.98
2023-01-17T01:51:41.590Z,10.80
2023-01-17T01:54:15.665Z,10.00
2023-01-17T01:56:44.248Z,10.97
2023-01-17T01:59:15.679Z,10.85
2023-01-17T02:01:42.913Z,10.93
2023-01-17T02:04:11.013Z,10.40
2023-01-17T02:06:42.169Z,10.45
2023-01-17T02:09:11.895Z,10.77
2023-01-17T02:11:40.913Z,9.32
2023-01-17T02:14:09.024Z,8.32
2023-01-17T02:16:58.094Z,9.23
2023-01-17T02:19:57.109Z,10.02
2023-01-17T02:22:26.990Z,10.27
2023-01-17T02:24:53.940Z,9.60
2023-01-17T02:27:42.148Z,9.55
2023-01-17T02:30:24.248Z,9.90
2023-01-17T02:33:26.390Z,9.90
2023-01-17T02:36:10.273Z,9.40
2023-01-17T02:39:12.715Z,11.52
2023-01-17T02:41:43.816Z,8.50
2023-01-17T02:44:15.864Z,9.25
2023-01-17T02:46:49.607Z,10.35
2023-01-17T02:49:18.830Z,10.20
2023-01-17T02:52:20.829Z,9.95
2023-01-17T02:55:18.625Z,10.30
2023-01-17T02:58:03.909Z,8.65
2023-01-17T03:00:49.401Z,9.07
2023-01-17T03:03:23.348Z,8.83
2023-01-17T03:06:11.704Z,8.10
2023-01-17T03:08:41.284Z,10.23
2023-01-17T03:11:12.571Z,8.80
2023-01-17T03:13:39.882Z,9.35
2023-01-17T03:16:12.883Z,8.23
2023-01-17T03:18:39.889Z,9.60
2023-01-17T03:21:06.853Z,10.45
2023-01-17T03:23:33.808Z,9.88
2023-01-17T03:26:00.745Z,8.85
2023-01-17T03:28:27.839Z,9.03
2023-01-17T03:30:54.916Z,9.02
2023-01-17T03:33:21.922Z,10.93
2023-01-17T03:35:48.944Z,10.73
2023-01-17T03:38:15.925Z,9.80
2023-01-17T03:40:42.866Z,9.17
2023-01-17T03:43:09.917Z,8.75
2023-01-17T03:45:36.926Z,9.25
2023-01-17T03:48:04.059Z,9.20
2023-01-17T03:50:31.021Z,8.88
2023-01-17T03:52:58.032Z,9.10
2023-01-17T03:55:24.983Z,10.18
2023-01-17T03:57:52.045Z,10.10
2023-01-17T04:00:19.278Z,9.75
2023-01-17T04:02:46.381Z,9.38
2023-01-17T04:05:13.451Z,9.63
2023-01-17T04:07:41.209Z,9.38
2023-01-17T04:10:08.668Z,9.80
2023-01-17T04:12:35.770Z,9.13
2023-01-17T04:15:02.863Z,9.35
2023-01-17T04:17:31.077Z,10.00
2023-01-17T04:19:58.144Z,9.95
2023-01-17T04:22:25.263Z,10.30
2023-01-17T04:24:52.235Z,9.52
2023-01-17T04:27:19.269Z,8.93
2023-01-17T04:29:46.877Z,9.13
2023-01-17T04:32:14.879Z,9.82
2023-01-17T04:34:42.155Z,9.70
2023-01-17T04:37:09.209Z,9.88
2023-01-17T04:39:36.273Z,10.43
2023-01-17T04:42:03.246Z,8.73
2023-01-17T04:44:30.268Z,9.23
2023-01-17T04:46:57.261Z,10.63
2023-01-17T04:49:24.308Z,11.27
2023-01-17T04:51:52.667Z,9.65
2023-01-17T04:54:19.671Z,9.50
2023-01-17T04:56:46.715Z,10.23
2023-01-17T04:59:13.776Z,10.63
2023-01-17T05:01:40.878Z,9.60
2023-01-17T05:04:07.950Z,10.52
2023-01-17T05:06:34.933Z,11.20
2023-01-17T05:09:03.008Z,10.25
2023-01-17T05:11:30.020Z,9.68
2023-01-17T05:13:57.018Z,11.13
2023-01-17T05:16:24.213Z,10.18
2023-01-17T05:18:53.041Z,10.10
2023-01-17T05:21:21.180Z,8.25
2023-01-17T05:23:48.589Z,9.70
2023-01-17T05:26:15.633Z,9.90
2023-01-17T05:28:42.703Z,9.85
2023-01-17T05:31:09.850Z,11.43
2023-01-17T05:33:37.071Z,9.98
2023-01-17T05:36:04.371Z,9.73
2023-01-17T05:38:31.412Z,11.10
2023-01-17T05:41:02.329Z,10.70
2023-01-17T05:43:29.461Z,10.33
2023-01-17T05:45:56.561Z,9.73
2023-01-17T05:48:23.682Z,10.75
2023-01-17T05:50:52.403Z,10.18
2023-01-17T05:53:19.483Z,9.88
2023-01-17T05:55:47.833Z,9.47
2023-01-17T05:58:18.184Z,9.60
2023-01-17T06:00:45.814Z,10.18
2023-01-17T06:03:13.276Z,9.80
2023-01-17T06:05:40.891Z,10.13
2023-01-17T06:08:08.370Z,9.70
2023-01-17T06:10:35.338Z,9.43
2023-01-17T06:13:08.352Z,8.98
2023-01-17T06:15:37.010Z,9.93
2023-01-17T06:18:15.646Z,10.30
2023-01-17T06:20:43.521Z,9.80
2023-01-17T06:23:13.320Z,10.57
2023-01-17T06:25:45.668Z,8.88
2023-01-17T06:28:14.978Z,10.63
2023-01-17T06:30:42.593Z,10.98
2023-01-17T06:33:10.511Z,9.57
2023-01-17T06:35:44.454Z,10.18
2023-01-17T06:38:11.439Z,10.45
2023-01-17T06:40:38.475Z,9.73
2023-01-17T06:43:05.967Z,9.95
2023-01-17T06:45:35.324Z,10.50
2023-01-17T06:48:04.273Z,9.13
2023-01-17T06:50:33.621Z,11.85
2023-01-17T06:53:07.029Z,10.00
2023-01-17T06:55:35.267Z,9.30
2023-01-17T06:58:03.257Z,10.00
2023-01-17T07:00:31.651Z,9.98
2023-01-17T07:02:58.653Z,10.50
2023-01-17T07:05:25.921Z,10.18
2023-01-17T07:07:53.719Z,10.70
2023-01-17T07:10:21.310Z,9.93
2023-01-17T07:12:48.380Z,10.68
2023-01-17T07:15:15.514Z,11.38
2023-01-17T07:17:42.520Z,10.65
2023-01-17T07:20:10.101Z,9.60
2023-01-17T07:22:37.891Z,11.17
2023-01-17T07:25:05.582Z,10.65
2023-01-17T07:27:33.722Z,9.40
2023-01-17T07:30:01.357Z,10.07
2023-01-17T07:32:28.763Z,11.18
2023-01-17T07:34:58.132Z,11.20
2023-01-17T07:37:26.577Z,11.10
2023-01-17T07:39:54.673Z,11.40
2023-01-17T07:42:23.959Z,10.88
2023-01-17T07:44:51.386Z,12.40
2023-01-17T07:47:18.313Z,10.27
2023-01-17T07:49:45.511Z,11.15
2023-01-17T07:52:12.492Z,12.10
2023-01-17T07:54:39.417Z,11.43
2023-01-17T07:57:11.207Z,11.20
2023-01-17T07:59:38.158Z,11.87
2023-01-17T08:02:05.289Z,12.20
2023-01-17T08:04:35.358Z,11.60
2023-01-17T08:07:02.631Z,11.85
2023-01-17T08:09:29.839Z,12.10
2023-01-17T08:11:56.826Z,12.40
2023-01-17T08:14:23.899Z,11.48
2023-01-17T08:16:50.944Z,11.75
2023-01-17T08:19:18.075Z,12.70
2023-01-17T08:21:45.181Z,13.02
2023-01-17T08:24:13.957Z,12.80
2023-01-17T08:26:40.998Z,11.35
2023-01-17T08:29:09.010Z,14.43
2023-01-17T08:31:36.778Z,12.90
2023-01-17T08:34:04.087Z,13.50
2023-01-17T08:36:31.452Z,13.00
2023-01-17T08:38:58.705Z,12.40
2023-01-17T08:41:28.021Z,12.82
2023-01-17T08:43:55.065Z,13.00
2023-01-17T08:46:22.617Z,14.02
2023-01-17T08:48:54.301Z,13.00
2023-01-17T08:51:21.786Z,12.88
2023-01-17T08:53:48.801Z,13.40
2023-01-17T08:56:15.947Z,13.75
2023-01-17T08:58:43.028Z,13.07
2023-01-17T09:01:10.196Z,13.87
2023-01-17T09:03:39.479Z,13.60
2023-01-17T09:06:13.917Z,13.07
2023-01-17T09:08:41.303Z,11.73
2023-01-17T09:11:13.079Z,13.05
2023-01-17T09:13:40.556Z,13.27
2023-01-17T09:16:08.381Z,11.95
2023-01-17T09:18:36.378Z,13.45
2023-01-17T09:21:14.826Z,14.35
2023-01-17T09:23:42.383Z,15.00
2023-01-17T09:26:34.564Z,15.63
2023-01-17T09:29:01.608Z,14.20
2023-01-17T09:31:29.047Z,13.43
2023-01-17T09:33:57.916Z,13.38
2023-01-17T09:36:28.942Z,13.35
2023-01-17T09:38:57.875Z,15.13
2023-01-17T09:41:30.134Z,12.82
2023-01-17T09:44:01.879Z,14.23
2023-01-17T09:46:32.614Z,13.18
2023-01-17T09:49:41.878Z,13.77
2023-01-17T09:52:13.685Z,13.00
2023-01-17T09:54:43.361Z,12.65
2023-01-17T09:57:47.008Z,11.82
2023-01-17T10:00:35.257Z,14.60
2023-01-17T10:03:28.363Z,13.15
2023-01-17T10:06:28.695Z,11.47
2023-01-17T10:09:13.658Z,12.85
2023-01-17T10:12:07.440Z,12.48
2023-01-17T10:14:34.482Z,13.43
2023-01-17T10:17:07.064Z,14.88
2023-01-17T10:19:55.167Z,12.00
2023-01-17T10:22:37.404Z,11.85
2023-01-17T10:25:36.442Z,14.02
2023-01-17T10:28:12.408Z,12.68
2023-01-17T10:30:49.038Z,14.70
2023-01-17T10:33:21.561Z,12.80
2023-01-17T10:35:57.269Z,13.52
2023-01-17T10:38:30.277Z,15.00
2023-01-17T10:41:03.363Z,14.02
2023-01-17T10:43:37.643Z,14.52
2023-01-17T10:46:05.311Z,14.60
2023-01-17T10:48:41.823Z,13.50
2023-01-17T10:51:11.117Z,13.80
2023-01-17T10:53:56.416Z,14.70
2023-01-17T10:56:28.192Z,15.80
2023-01-17T10:59:18.720Z,14.83
2023-01-17T11:01:46.201Z,13.95
2023-01-17T11:04:25.077Z,14.85
2023-01-17T11:07:12.643Z,14.55
2023-01-17T11:09:42.587Z,14.68
2023-01-17T11:12:44.375Z,14.30
2023-01-17T11:15:11.295Z,15.35
2023-01-17T11:17:53.555Z,14.93
2023-01-17T11:20:32.907Z,14.60
2023-01-17T11:23:14.846Z,12.80
2023-01-17T11:25:58.174Z,15.47
2023-01-17T11:28:30.830Z,15.80
2023-01-17T11:31:26.087Z,14.27
2023-01-17T11:34:13.409Z,13.40
2023-01-17T11:36:40.658Z,15.15
2023-01-17T11:39:27.712Z,13.77
2023-01-17T11:41:54.916Z,14.15
2023-01-17T11:44:31.829Z,15.43
2023-01-17T11:47:13.802Z,13.10
2023-01-17T11:49:42.608Z,16.02
2023-01-17T11:52:11.660Z,14.40
2023-01-17T11:54:40.599Z,14.27
2023-01-17T11:57:28.305Z,13.30
2023-01-17T12:00:24.976Z,13.15
2023-01-17T12:03:11.001Z,14.38
2023-01-17T12:05:53.760Z,13.83
2023-01-17T12:08:44.603Z,14.38
2023-01-17T12:11:23.576Z,16.05
2023-01-17T12:14:02.343Z,15.13
2023-01-17T12:16:35.316Z,14.55
2023-01-17T12:19:05.286Z,15.00
2023-01-17T12:21:50.929Z,14.60
2023-01-17T12:24:41.686Z,14.43
2023-01-17T12:27:20.837Z,14.43
2023-01-17T12:30:22.697Z,12.30
2023-01-17T12:33:06.907Z,14.07
2023-01-17T12:35:46.252Z,13.68
2023-01-17T12:38:31.733Z,13.68
2023-01-17T12:41:24.434Z,14.63
2023-01-17T12:43:56.610Z,14.27
2023-01-17T12:46:33.735Z,13.90
2023-01-17T12:49:43.722Z,12.43
2023-01-17T12:52:52.509Z,13.40
2023-01-17T12:55:55.574Z,12.63
2023-01-17T12:58:25.981Z,14.02
2023-01-17T13:01:28.534Z,13.20
2023-01-17T13:04:21.376Z,10.85
2023-01-17T13:07:03.372Z,12.38
2023-01-17T13:09:39.747Z,12.70
2023-01-17T13:12:14.224Z,11.30
2023-01-17T13:14:41.447Z,12.33
2023-01-17T13:17:57.777Z,11.75
2023-01-17T13:20:33.473Z,10.57
2023-01-17T13:23:33.777Z,11.10
2023-01-17T13:26:03.409Z,10.00
2023-01-17T13:28:47.130Z,11.50
2023-01-17T13:31:48.391Z,10.65
2023-01-17T13:34:45.978Z,9.63
2023-01-17T13:37:42.458Z,11.73
2023-01-17T13:40:29.682Z,12.60
2023-01-17T13:43:00.893Z,10.43
2023-01-17T13:45:31.236Z,11.50
2023-01-17T13:48:14.778Z,9.63
2023-01-17T13:50:41.855Z,11.10
2023-01-17T13:53:39.564Z,12.00
2023-01-17T13:56:18.887Z,12.23
2023-01-17T13:58:50.390Z,11.63
2023-01-17T14:01:24.656Z,10.48
2023-01-17T14:03:54.454Z,11.23
2023-01-17T14:06:40.801Z,10.60
2023-01-17T14:09:17.064Z,10.60
2023-01-17T14:11:58.684Z,10.88
2023-01-17T14:14:56.765Z,10.60
2023-01-17T14:17:25.706Z,10.38
2023-01-17T14:19:53.741Z,11.07
2023-01-17T14:22:20.848Z,10.13
2023-01-17T14:25:12.297Z,11.20
2023-01-17T14:27:42.626Z,10.38
2023-01-17T14:30:27.630Z,10.35
2023-01-17T14:33:08.881Z,11.88
2023-01-17T14:35:37.637Z,11.70
2023-01-17T14:38:18.672Z,10.32
2023-01-17T14:40:54.111Z,11.75
2023-01-17T14:43:24.074Z,12.20
2023-01-17T14:46:05.757Z,11.10
2023-01-17T14:48:40.520Z,9.70
2023-01-17T14:51:20.428Z,10.63
2023-01-17T14:53:59.427Z,11.57
2023-01-17T14:56:28.876Z,9.02
2023-01-17T14:59:17.395Z,10.95
2023-01-17T15:02:06.163Z,9.27
2023-01-17T15:04:39.899Z,10.52
2023-01-17T15:07:18.992Z,10.00
2023-01-17T15:09:47.386Z,9.18
2023-01-17T15:12:14.946Z,8.25
2023-01-17T15:14:45.998Z,9.90
2023-01-17T15:17:24.684Z,11.02
2023-01-17T15:20:06.626Z,10.02
2023-01-17T15:22:36.849Z,10.88
2023-01-17T15:25:05.331Z,10.93
2023-01-17T15:27:32.908Z,9.87
2023-01-17T15:30:02.894Z,11.73
2023-01-17T15:32:31.937Z,11.43
2023-01-17T15:35:02.645Z,11.60
2023-01-17T15:37:34.838Z,12.55
2023-01-17T15:40:20.355Z,12.37
2023-01-17T15:43:01.200Z,10.18
2023-01-17T15:45:31.809Z,12.13
2023-01-17T15:48:38.704Z,11.90
2023-01-17T15:51:06.009Z,11.68
2023-01-17T15:53:36.888Z,11.30
2023-01-17T15:56:22.303Z,11.48
2023-01-17T15:58:50.536Z,11.55
2023-01-17T16:01:25.775Z,10.20
2023-01-17T16:03:56.404Z,11.70
2023-01-17T16:06:45.987Z,9.83
2023-01-17T16:09:25.086Z,9.75
2023-01-17T16:11:52.557Z,9.73
2023-01-17T16:14:20.109Z,9.45
2023-01-17T16:16:54.738Z,9.98
2023-01-17T16:19:25.330Z,9.33
2023-01-17T16:21:52.538Z,9.63
2023-01-17T16:24:20.190Z,11.73
2023-01-17T16:26:51.850Z,11.00
2023-01-17T16:29:19.275Z,10.68
2023-01-17T16:31:46.698Z,11.60
2023-01-17T16:34:14.218Z,10.48
2023-01-17T16:36:41.887Z,10.85
2023-01-17T16:39:14.619Z,10.43
2023-01-17T16:41:41.859Z,12.30
2023-01-17T16:44:10.183Z,11.20
2023-01-17T16:46:38.747Z,13.23
2023-01-17T16:49:06.583Z,13.30
2023-01-17T16:51:34.804Z,12.57
2023-01-17T16:54:02.225Z,13.75
2023-01-17T16:56:29.942Z,12.03
2023-01-17T16:58:57.687Z,13.07
2023-01-17T17:01:25.508Z,14.68
2023-01-17T17:03:55.682Z,11.95
2023-01-17T17:06:23.287Z,13.13
2023-01-17T17:08:50.736Z,12.67
2023-01-17T17:11:21.160Z,13.57
2023-01-17T17:13:50.204Z,13.70
2023-01-17T17:16:26.609Z,14.35
2023-01-17T17:18:57.088Z,16.65
2023-01-17T17:21:26.171Z,13.93
2023-01-17T17:23:58.385Z,14.23
2023-01-17T17:26:27.603Z,16.10
2023-01-17T17:28:55.033Z,14.48
2023-01-17T17:31:25.481Z,15.43
2023-01-17T17:33:53.035Z,14.63
2023-01-17T17:36:20.070Z,13.20
2023-01-17T17:38:53.977Z,14.15
2023-01-17T17:41:27.747Z,14.20
2023-01-17T17:43:55.970Z,11.35
2023-01-17T17:46:25.343Z,13.80
2023-01-17T17:48:52.591Z,14.00
2023-01-17T17:51:40.383Z,13.15
2023-01-17T17:54:10.356Z,14.98
2023-01-17T17:56:39.603Z,15.27
2023-01-17T17:59:09.272Z,15.27
2023-01-17T18:01:41.059Z,12.25
2023-01-17T18:04:08.912Z,13.10
2023-01-17T18:06:36.408Z,12.25
2023-01-17T18:09:04.514Z,12.68
2023-01-17T18:11:32.117Z,14.80
2023-01-17T18:14:01.787Z,14.20
2023-01-17T18:16:35.652Z,14.13
2023-01-17T18:19:04.238Z,13.07
2023-01-17T18:21:33.971Z,14.98
2023-01-17T18:24:03.803Z,12.10
2023-01-17T18:26:32.275Z,12.68
2023-01-17T18:29:00.380Z,14.45
2023-01-17T18:31:29.450Z,14.20
2023-01-17T18:33:59.237Z,16.17
2023-01-17T18:36:29.018Z,13.33
2023-01-17T18:38:56.923Z,13.48
2023-01-17T18:41:27.064Z,13.90
2023-01-17T18:43:56.201Z,13.85
2023-01-17T18:46:26.065Z,13.82
2023-01-17T18:48:57.074Z,13.87
2023-01-17T18:51:24.875Z,14.48
2023-01-17T18:53:55.148Z,15.45
2023-01-17T18:56:24.050Z,14.60
2023-01-17T18:58:51.392Z,11.23
2023-01-17T19:01:24.872Z,13.87
2023-01-17T19:03:54.834Z,14.02
2023-01-17T19:06:25.745Z,13.57
2023-01-17T19:08:53.205Z,13.88
2023-01-17T19:11:22.676Z,11.95
2023-01-17T19:13:50.885Z,12.70
2023-01-17T19:16:28.228Z,13.02
2023-01-17T19:18:58.177Z,14.88
2023-01-17T19:21:27.709Z,14.45
2023-01-17T19:23:56.910Z,11.02
2023-01-17T19:26:27.644Z,14.80
2023-01-17T19:28:56.919Z,14.90
2023-01-17T19:31:26.811Z,14.13
2023-01-17T19:33:57.586Z,13.40
2023-01-17T19:36:28.384Z,15.70
2023-01-17T19:39:04.506Z,14.40
2023-01-17T19:41:34.531Z,12.40
2023-01-17T19:44:04.295Z,12.95
2023-01-17T19:46:32.783Z,13.30
2023-01-17T19:49:00.704Z,14.07
2023-01-17T19:51:28.279Z,15.13
2023-01-17T19:53:56.208Z,13.68
2023-01-17T19:56:25.360Z,13.75
2023-01-17T19:58:52.513Z,16.98
2023-01-17T20:01:19.701Z,14.55
2023-01-17T20:03:47.339Z,14.93
2023-01-17T20:06:17.725Z,12.10
2023-01-17T20:08:45.396Z,12.27
2023-01-17T20:11:21.543Z,12.90
2023-01-17T20:13:51.601Z,15.48
2023-01-17T20:16:19.559Z,13.77
2023-01-17T20:18:46.695Z,14.52
2023-01-17T20:21:17.452Z,13.55
2023-01-17T20:23:47.125Z,14.63
2023-01-17T20:26:15.855Z,13.57
2023-01-17T20:28:46.189Z,12.40
2023-01-17T20:31:16.154Z,14.50
2023-01-17T20:33:44.787Z,13.90
2023-01-17T20:36:15.055Z,14.63
2023-01-17T20:38:46.400Z,14.18
2023-01-17T20:41:24.521Z,11.47
2023-01-17T20:43:57.058Z,14.30
2023-01-17T20:46:26.913Z,14.32
2023-01-17T20:48:56.063Z,11.10
2023-01-17T20:51:25.504Z,12.88
2023-01-17T20:53:56.097Z,9.80
2023-01-17T20:56:24.004Z,12.52
2023-01-17T20:58:52.466Z,16.88
2023-01-17T21:01:21.359Z,12.48
2023-01-17T21:03:51.743Z,12.27
2023-01-17T21:06:20.913Z,14.83
2023-01-17T21:08:48.539Z,12.23
2023-01-17T21:11:20.941Z,13.18
2023-01-17T21:13:51.592Z,14.80
2023-01-17T21:16:21.361Z,14.10
2023-01-17T21:18:50.116Z,13.87
2023-01-17T21:21:24.470Z,14.77
2023-01-17T21:23:53.672Z,13.23
2023-01-17T21:26:22.541Z,16.17
2023-01-17T21:28:50.983Z,12.57
2023-01-17T21:31:26.518Z,12.50
2023-01-17T21:33:59.248Z,13.65
2023-01-17T21:36:29.502Z,14.00
2023-01-17T21:38:58.906Z,12.23
2023-01-17T21:41:29.308Z,14.50
2023-01-17T21:43:58.842Z,12.77
2023-01-17T21:46:27.144Z,13.52
2023-01-17T21:48:54.210Z,14.88
2023-01-17T21:51:21.954Z,12.95
2023-01-17T21:53:49.052Z,14.57
2023-01-17T21:56:35.107Z,12.13
2023-01-17T21:59:02.276Z,13.65
2023-01-17T22:01:32.652Z,16.40
2023-01-17T22:04:02.846Z,16.20
2023-01-17T22:06:32.918Z,14.30
2023-01-17T22:09:00.240Z,15.73
2023-01-17T22:11:30.097Z,15.45
2023-01-17T22:13:59.250Z,15.20
2023-01-17T22:16:26.574Z,15.52
2023-01-17T22:18:53.744Z,14.95
2023-01-17T22:21:23.300Z,12.80
2023-01-17T22:23:52.277Z,15.48
2023-01-17T22:26:21.416Z,15.63
2023-01-17T22:28:48.435Z,15.23
2023-01-17T22:31:24.754Z,14.88
2023-01-17T22:34:03.625Z,14.23
2023-01-17T22:36:34.707Z,13.98
2023-01-17T22:39:02.274Z,14.38
2023-01-17T22:41:31.324Z,14.90
2023-01-17T22:44:02.140Z,15.20
2023-01-17T22:46:31.669Z,12.50
2023-01-17T22:48:59.368Z,11.82
2023-01-17T22:51:28.459Z,16.60
2023-01-17T22:53:57.831Z,14.35
2023-01-17T22:56:32.981Z,15.05
2023-01-17T22:59:01.146Z,14.33
2023-01-17T23:01:30.925Z,12.38
2023-01-17T23:03:59.873Z,14.73
2023-01-17T23:06:38.711Z,12.90
2023-01-17T23:09:11.649Z,14.88
2023-01-17T23:11:47.497Z,16.17
2023-01-17T23:14:14.448Z,13.80
2023-01-17T23:17:08.500Z,17.13
2023-01-17T23:19:42.601Z,17.52
2023-01-17T23:22:15.952Z,15.57
2023-01-17T23:25:01.087Z,18.60
2023-01-17T23:27:58.207Z,17.42
2023-01-17T23:30:29.847Z,14.52
2023-01-17T23:32:59.926Z,17.52
2023-01-17T23:35:30.021Z,15.15
2023-01-17T23:38:15.998Z,15.73
2023-01-17T23:40:43.929Z,16.80
2023-01-17T23:43:23.872Z,15.73
2023-01-17T23:45:52.614Z,14.25
2023-01-17T23:48:20.754Z,16.75
2023-01-17T23:50:48.706Z,15.70
2023-01-17T23:53:23.768Z,16.95
2023-01-17T23:55:56.899Z,15.10
2023-01-17T23:58:26.897Z,16.98
